Back to Top

Language: 

My Weather Underground Personal Weather Station Historical Data with Graphs...

Delerius Weather Station Historical Data
Daily Summary for March 8, 2018 Units:  Metric    English   Both
« Previous Day
Next Day »
Daily Weekly Monthly Yearly Custom
  High: Low: Average:
Temperature: 7.8 °C 0.4 °C 3.3 °C
Dew Point: 4.6 °C -0.7 °C 1.3 °C
Humidity: 97 % 67 % 88 %
Wind Speed: 29 km/h 0 km/h 7.4 km/h
Wind Gust: 43.5 km/h - -
Wind:- - WSW
Pressure: 999.9 hPa 987.4 hPa -
Precipitation: 6.86 mm    
Historical Graphs
 
 
Tabular Data for March 8, 2018
Time Temperature Dew Point Pressure Wind Wind Speed Wind Gust Humidity Rainfall Rate (Hourly) solar Conditions
00:00 1.6 °C 0.1 °C 993.5 hPa SSW 4.8 km/h 9.7 km/h 90 % 0 mm 0 W/m2
00:05 1.8 °C 0.3 °C 993.1 hPa SSW 3.2 km/h 8 km/h 90 % 0 mm 0 W/m2
00:10 1.8 °C 0.2 °C 993.1 hPa SSW 1.6 km/h 6.4 km/h 89 % 0 mm 0 W/m2
00:15 1.8 °C 0.2 °C 993.1 hPa SSW 3.2 km/h 6.4 km/h 89 % 0 mm 0 W/m2
00:20 1.7 °C -0.1 °C 993.1 hPa South 3.2 km/h 6.4 km/h 88 % 0 mm 0 W/m2
00:25 1.4 °C -0.6 °C 993.1 hPa SE 4.8 km/h 9.7 km/h 87 % 0 mm 0 W/m2
00:30 1.2 °C -0.6 °C 993.1 hPa SE 4.8 km/h 9.7 km/h 88 % 0 mm 0 W/m2
00:35 1.2 °C -0.4 °C 993.1 hPa SSE 3.2 km/h 8 km/h 89 % 0 mm 0 W/m2
00:40 1.2 °C -0.4 °C 993.1 hPa SSE 4.8 km/h 8 km/h 89 % 0 mm 0 W/m2
00:45 1.2 °C -0.4 °C 993.1 hPa SSE 4.8 km/h 11.3 km/h 89 % 0 mm 0 W/m2
00:50 1.2 °C -0.3 °C 993.1 hPa South 3.2 km/h 6.4 km/h 90 % 0 mm 0 W/m2
00:55 1.1 °C -0.3 °C 993.1 hPa South 3.2 km/h 6.4 km/h 90 % 0 mm 0 W/m2
01:00 1.1 °C -0.3 °C 992.8 hPa South 4.8 km/h 8 km/h 90 % 0 mm 0 W/m2
01:05 1.1 °C -0.3 °C 992.8 hPa SSW 6.4 km/h 9.7 km/h 90 % 0 mm 0 W/m2
01:10 1.2 °C -0.1 °C 992.4 hPa SSW 3.2 km/h 8 km/h 91 % 0 mm 0 W/m2
01:15 1.3 °C 0 °C 992.4 hPa Calm   4.8 km/h 91 % 0 mm 0 W/m2
01:20 1.2 °C -0.3 °C 992.1 hPa Calm   1.6 km/h 90 % 0 mm 0 W/m2
01:25 1.2 °C -0.3 °C 992.1 hPa Calm   1.6 km/h 90 % 0 mm 0 W/m2
01:30 1 °C -0.4 °C 992.1 hPa SSW 1.6 km/h 6.4 km/h 90 % 0 mm 0 W/m2
01:35 0.9 °C -0.6 °C 992.1 hPa SE 6.4 km/h 8 km/h 90 % 0 mm 0 W/m2
01:40 0.8 °C -0.7 °C 992.1 hPa SE 1.6 km/h 3.2 km/h 90 % 0 mm 0 W/m2
01:45 0.8 °C -0.5 °C 992.1 hPa SE 1.6 km/h 4.8 km/h 91 % 0 mm 0 W/m2
01:50 0.9 °C -0.4 °C 992.1 hPa SE 1.6 km/h 6.4 km/h 91 % 0 mm 0 W/m2
01:55 0.9 °C -0.4 °C 992.1 hPa SE 1.6 km/h 8 km/h 91 % 0 mm 0 W/m2
02:00 0.9 °C -0.4 °C 992.1 hPa Calm   1.6 km/h 91 % 0 mm 0 W/m2
02:05 0.8 °C -0.5 °C 992.1 hPa SE 1.6 km/h 3.2 km/h 91 % 0 mm 0 W/m2
02:10 0.7 °C -0.6 °C 991.8 hPa Calm   3.2 km/h 91 % 0 mm 0 W/m2
02:15 0.7 °C -0.6 °C 991.8 hPa Calm   3.2 km/h 91 % 0 mm 0 W/m2
02:20 0.7 °C -0.6 °C 991.8 hPa SE 1.6 km/h 4.8 km/h 91 % 0 mm 0 W/m2
02:25 0.6 °C -0.6 °C 991.8 hPa SE 1.6 km/h 4.8 km/h 92 % 0 mm 0 W/m2
02:30 0.6 °C -0.6 °C 991.4 hPa Calm   1.6 km/h 92 % 0 mm 0 W/m2
02:35 0.7 °C -0.4 °C 991.4 hPa Calm     92 % 0 mm 0 W/m2
02:40 0.6 °C -0.6 °C 991.4 hPa ESE 1.6 km/h 3.2 km/h 92 % 0 mm 0 W/m2
02:45 0.6 °C -0.6 °C 991.4 hPa Calm   3.2 km/h 92 % 0 mm 0 W/m2
02:50 0.6 °C -0.6 °C 991.1 hPa ESE 1.6 km/h 6.4 km/h 92 % 0 mm 0 W/m2
02:55 0.4 °C -0.7 °C 991.1 hPa ESE 1.6 km/h 3.2 km/h 92 % 0 mm 0 W/m2
03:00 0.4 °C -0.7 °C 990.7 hPa Calm   1.6 km/h 92 % 0 mm 0 W/m2
03:05 0.4 °C -0.7 °C 990.7 hPa Calm   1.6 km/h 92 % 0 mm 0 W/m2
03:10 0.4 °C -0.7 °C 990.7 hPa Calm   1.6 km/h 92 % 0 mm 0 W/m2
03:15 0.4 °C -0.6 °C 990.4 hPa East 1.6 km/h 6.4 km/h 93 % 0 mm 0 W/m2
03:20 0.6 °C -0.4 °C 990.4 hPa ENE 1.6 km/h 4.8 km/h 93 % 0 mm 0 W/m2
03:25 0.7 °C -0.3 °C 990.4 hPa ENE 3.2 km/h 6.4 km/h 93 % 0 mm 0 W/m2
03:30 0.8 °C -0.2 °C 990.4 hPa ENE 1.6 km/h 8 km/h 93 % 0 mm 0 W/m2
03:35 0.9 °C -0.1 °C 990.1 hPa ENE 3.2 km/h 8 km/h 93 % 0 mm 0 W/m2
03:40 1 °C 0 °C 990.1 hPa ENE 1.6 km/h 3.2 km/h 93 % 0 mm 0 W/m2
03:45 0.9 °C -0.3 °C 990.1 hPa Calm     92 % 0 mm 0 W/m2
03:50 0.8 °C -0.3 °C 990.1 hPa Calm   3.2 km/h 92 % 0 mm 0 W/m2
03:55 0.8 °C -0.2 °C 989.7 hPa Calm   1.6 km/h 93 % 0 mm 0 W/m2
04:00 0.9 °C -0.1 °C 989.7 hPa ENE 1.6 km/h 6.4 km/h 93 % 0 mm 0 W/m2
04:05 1.1 °C 0.1 °C 989.7 hPa ENE 3.2 km/h 6.4 km/h 93 % 0 mm 0 W/m2
04:10 1.2 °C 0.2 °C 989.7 hPa ENE 1.6 km/h 3.2 km/h 93 % 0 mm 0 W/m2
04:15 1.3 °C 0.4 °C 989.4 hPa ENE 1.6 km/h 6.4 km/h 94 % 0 mm 0 W/m2
04:20 1.4 °C 0.4 °C 989.4 hPa ENE 1.6 km/h 3.2 km/h 93 % 0 mm 0 W/m2
04:25 1.4 °C 0.4 °C 989.4 hPa East 4.8 km/h 9.7 km/h 93 % 0 mm 0 W/m2
04:30 1.4 °C 0.4 °C 989.4 hPa East 1.6 km/h 6.4 km/h 93 % 0 mm 0 W/m2
04:35 1.5 °C 0.5 °C 989.1 hPa East 1.6 km/h 3.2 km/h 93 % 0 mm 0 W/m2
04:40 1.5 °C 0.5 °C 989.1 hPa Calm   6.4 km/h 93 % 0 mm 0 W/m2
04:45 1.5 °C 0.5 °C 989.1 hPa ENE 1.6 km/h 3.2 km/h 93 % 0 mm 0 W/m2
04:50 1.5 °C 0.5 °C 989.1 hPa Calm   4.8 km/h 93 % 0.25 mm 0 W/m2
04:55 1.4 °C 0.4 °C 988.7 hPa ENE 1.6 km/h 6.4 km/h 93 % 0.25 mm 0 W/m2
05:00 1.4 °C 0.4 °C 988.7 hPa Calm   3.2 km/h 93 % 0.25 mm 0 W/m2
05:05 1.4 °C 0.4 °C 988.7 hPa ENE 1.6 km/h 3.2 km/h 93 % 0.25 mm 0 W/m2
05:10 1.3 °C 0.3 °C 988.7 hPa East 3.2 km/h 6.4 km/h 93 % 0.51 mm 0 W/m2
05:15 1.2 °C 0.2 °C 988.7 hPa ENE 1.6 km/h 4.8 km/h 93 % 0.51 mm 0 W/m2
05:20 1.1 °C 0.1 °C 988.4 hPa ENE 1.6 km/h 6.4 km/h 93 % 0.51 mm 0 W/m2
05:25 1 °C 0 °C 988.4 hPa ENE 1.6 km/h 3.2 km/h 93 % 0.51 mm 0 W/m2
05:30 0.9 °C 0.1 °C 988.4 hPa ENE 1.6 km/h 4.8 km/h 94 % 0.51 mm 0 W/m2
05:36 0.9 °C 0.1 °C 988.4 hPa ENE 1.6 km/h 6.4 km/h 94 % 0.51 mm 0 W/m2
05:41 0.8 °C -0.1 °C 988.4 hPa ENE 1.6 km/h 4.8 km/h 94 % 0.51 mm 0 W/m2
05:46 0.8 °C -0.1 °C 988 hPa ENE 1.6 km/h 6.4 km/h 94 % 0.51 mm 0 W/m2
05:51 0.8 °C -0.1 °C 988 hPa ENE 1.6 km/h 6.4 km/h 94 % 0.25 mm 0 W/m2
05:56 0.8 °C -0.1 °C 988 hPa Calm   1.6 km/h 94 % 0.25 mm 0 W/m2
06:01 0.8 °C -0.1 °C 988 hPa ENE 1.6 km/h 4.8 km/h 94 % 0.25 mm 0 W/m2
06:06 0.8 °C -0.1 °C 987.7 hPa ENE 1.6 km/h 3.2 km/h 94 % 0.25 mm 0 W/m2
06:11 0.8 °C 0.1 °C 987.7 hPa Calm   3.2 km/h 95 % 0 mm 0 W/m2
06:16 0.8 °C 0.1 °C 987.7 hPa Calm   3.2 km/h 95 % 0 mm 0 W/m2
06:21 0.8 °C 0.1 °C 987.7 hPa Calm   1.6 km/h 95 % 0.25 mm 0 W/m2
06:26 0.8 °C 0.1 °C 987.7 hPa Calm     95 % 0.25 mm 0 W/m2
06:31 0.8 °C 0.1 °C 987.7 hPa Calm     95 % 0.25 mm 0 W/m2
06:36 0.8 °C 0.1 °C 987.7 hPa Calm   1.6 km/h 95 % 0.51 mm 0 W/m2
06:41 0.8 °C 0.1 °C 987.7 hPa Calm     95 % 0.51 mm 0 W/m2
06:46 0.8 °C 0.1 °C 987.7 hPa Calm   1.6 km/h 95 % 0.51 mm 0 W/m2
06:51 0.8 °C 0.1 °C 987.4 hPa Calm   1.6 km/h 95 % 0.51 mm 0 W/m2
06:56 0.8 °C 0.1 °C 987.4 hPa ENE 3.2 km/h 8 km/h 95 % 0.51 mm 5 W/m2
07:01 0.8 °C 0.1 °C 987.4 hPa Calm     95 % 0.51 mm 5 W/m2
07:06 0.8 °C 0.1 °C 987.4 hPa Calm     95 % 0.76 mm 7 W/m2
07:11 0.8 °C 0.1 °C 987.4 hPa Calm     95 % 0.76 mm 7 W/m2
07:16 0.8 °C 0.1 °C 987.4 hPa Calm     95 % 1.02 mm 7 W/m2
07:21 0.8 °C 0.1 °C 987.4 hPa Calm   1.6 km/h 95 % 0.76 mm 9 W/m2
07:26 0.8 °C 0.1 °C 987.4 hPa Calm     95 % 0.76 mm 11 W/m2
07:31 0.8 °C 0.1 °C 987.4 hPa Calm   3.2 km/h 95 % 0.76 mm 11 W/m2
07:36 0.8 °C 0.1 °C 987.4 hPa Calm   1.6 km/h 95 % 0.76 mm 12 W/m2
07:41 0.8 °C 0.1 °C 987.4 hPa Calm     95 % 0.76 mm 12 W/m2
07:46 0.8 °C 0.1 °C 987.4 hPa Calm     95 % 0.51 mm 16 W/m2
07:51 0.8 °C 0.1 °C 987.4 hPa Calm     95 % 0.76 mm 16 W/m2
07:56 0.9 °C 0.2 °C 987.4 hPa Calm     95 % 0.76 mm 16 W/m2
08:01 0.9 °C 0.2 °C 987.4 hPa ENE 1.6 km/h 3.2 km/h 95 % 0.76 mm 18 W/m2
08:06 0.9 °C 0.2 °C 987.4 hPa Calm     95 % 0.76 mm 21 W/m2
08:11 0.9 °C 0.2 °C 987.4 hPa Calm     95 % 0.76 mm 23 W/m2
08:16 0.9 °C 0.3 °C 987.4 hPa Calm     96 % 0.76 mm 25 W/m2
08:21 0.9 °C 0.3 °C 987.4 hPa Calm     96 % 0.76 mm 28 W/m2
08:26 0.9 °C 0.3 °C 987.4 hPa NNW 1.6 km/h 8 km/h 96 % 0.76 mm 32 W/m2
08:31 1 °C 0.4 °C 987.4 hPa Calm   6.4 km/h 96 % 1.02 mm 30 W/m2
08:36 1.1 °C 0.6 °C 987.4 hPa NNW 3.2 km/h 8 km/h 96 % 0.76 mm 28 W/m2
08:41 1.1 °C 0.6 °C 987.7 hPa NNW 4.8 km/h 9.7 km/h 96 % 0.76 mm 26 W/m2
08:46 1.1 °C 0.6 °C 987.7 hPa NW 1.6 km/h 8 km/h 96 % 1.02 mm 25 W/m2
08:51 1 °C 0.4 °C 987.4 hPa NW 1.6 km/h 4.8 km/h 96 % 0.76 mm 23 W/m2
08:56 1 °C 0.4 °C 987.4 hPa NW 1.6 km/h 6.4 km/h 96 % 0.76 mm 23 W/m2
09:01 0.9 °C 0.3 °C 987.4 hPa WNW 4.8 km/h 9.7 km/h 96 % 0.76 mm 23 W/m2
09:06 0.9 °C 0.3 °C 987.7 hPa WNW 4.8 km/h 8 km/h 96 % 0.51 mm 25 W/m2
09:11 0.9 °C 0.3 °C 987.7 hPa NW 4.8 km/h 11.3 km/h 96 % 0.76 mm 28 W/m2
09:16 0.9 °C 0.3 °C 987.7 hPa NW 4.8 km/h 11.3 km/h 96 % 0.51 mm 32 W/m2
09:21 0.9 °C 0.3 °C 987.7 hPa NW 4.8 km/h 11.3 km/h 96 % 0.51 mm 32 W/m2
09:26 0.9 °C 0.3 °C 987.7 hPa NW 9.7 km/h 12.9 km/h 96 % 0.76 mm 32 W/m2
09:31 0.9 °C 0.3 °C 987.7 hPa NW 8 km/h 14.5 km/h 96 % 0.51 mm 26 W/m2
09:36 0.9 °C 0.3 °C 988 hPa NW 8 km/h 14.5 km/h 96 % 0.51 mm 21 W/m2
09:42 0.9 °C 0.3 °C 988 hPa WNW 9.7 km/h 16.1 km/h 96 % 0.51 mm 25 W/m2
09:47 0.9 °C 0.3 °C 988 hPa NW 8 km/h 12.9 km/h 96 % 0.51 mm 28 W/m2
09:52 1 °C 0.4 °C 988.4 hPa NW 6.4 km/h 12.9 km/h 96 % 0.51 mm 40 W/m2
09:57 1 °C 0.4 °C 988.4 hPa NW 6.4 km/h 12.9 km/h 96 % 0.76 mm 76 W/m2
10:02 1.1 °C 0.6 °C 988.4 hPa NW 4.8 km/h 11.3 km/h 96 % 0.76 mm 70 W/m2
10:07 1.2 °C 0.6 °C 988.7 hPa NW 8 km/h 14.5 km/h 96 % 0.76 mm 102 W/m2
10:12 1.3 °C 0.7 °C 988.7 hPa NW 9.7 km/h 16.1 km/h 96 % 0.76 mm 77 W/m2
10:17 1.3 °C 0.7 °C 988.7 hPa NW 9.7 km/h 16.1 km/h 96 % 0.76 mm 69 W/m2
10:22 1.3 °C 0.7 °C 989.1 hPa NW 11.3 km/h 17.7 km/h 96 % 1.02 mm 95 W/m2
10:27 1.3 °C 0.7 °C 989.1 hPa NW 8 km/h 12.9 km/h 96 % 0.76 mm 118 W/m2
10:32 1.3 °C 0.7 °C 989.4 hPa WNW 12.9 km/h 20.9 km/h 96 % 1.02 mm 134 W/m2
10:37 1.4 °C 0.8 °C 989.4 hPa NW 8 km/h 16.1 km/h 96 % 1.02 mm 151 W/m2
10:42 1.5 °C 0.9 °C 989.4 hPa WNW 14.5 km/h 22.5 km/h 96 % 1.02 mm 160 W/m2
10:47 1.5 °C 0.9 °C 989.7 hPa WNW 14.5 km/h 20.9 km/h 96 % 1.27 mm 190 W/m2
10:52 1.6 °C 1.1 °C 989.7 hPa WNW 11.3 km/h 19.3 km/h 96 % 1.52 mm 206 W/m2
10:57 1.7 °C 1.1 °C 989.7 hPa WNW 14.5 km/h 19.3 km/h 96 % 1.27 mm 123 W/m2
11:02 1.7 °C 1.1 °C 989.7 hPa WNW 14.5 km/h 20.9 km/h 96 % 1.52 mm 105 W/m2
11:07 1.7 °C 1.1 °C 990.1 hPa WNW 12.9 km/h 17.7 km/h 96 % 1.52 mm 107 W/m2
11:12 1.7 °C 1.1 °C 990.1 hPa WNW 11.3 km/h 17.7 km/h 96 % 1.52 mm 118 W/m2
11:17 1.8 °C 1.2 °C 990.1 hPa NW 11.3 km/h 17.7 km/h 96 % 1.52 mm 165 W/m2
11:22 1.9 °C 1.3 °C 990.4 hPa NW 12.9 km/h 19.3 km/h 96 % 1.52 mm 434 W/m2
11:27 2.2 °C 1.6 °C 990.4 hPa WNW 11.3 km/h 19.3 km/h 96 % 1.52 mm 424 W/m2
11:32 2.6 °C 2.2 °C 990.4 hPa WNW 12.9 km/h 19.3 km/h 97 % 1.52 mm 543 W/m2
11:37 3.1 °C 2.7 °C 990.4 hPa WNW 19.3 km/h 29 km/h 97 % 1.52 mm 540 W/m2
11:42 3.4 °C 2.9 °C 990.4 hPa WNW 14.5 km/h 22.5 km/h 97 % 1.52 mm 503 W/m2
11:47 3.7 °C 3.1 °C 990.4 hPa WNW 19.3 km/h 35.4 km/h 96 % 1.52 mm 316 W/m2
11:52 3.8 °C 3.2 °C 990.7 hPa WNW 20.9 km/h 37 km/h 96 % 1.52 mm 424 W/m2
11:57 4 °C 3.4 °C 990.7 hPa WNW 25.7 km/h 40.2 km/h 96 % 1.52 mm 476 W/m2
12:02 4.2 °C 3.4 °C 990.7 hPa WNW 20.9 km/h 40.2 km/h 95 % 1.52 mm 621 W/m2
12:07 4.4 °C 3.7 °C 991.1 hPa WNW 29 km/h 43.5 km/h 95 % 1.52 mm 236 W/m2
12:12 4.3 °C 3.3 °C 991.1 hPa WNW 22.5 km/h 33.8 km/h 93 % 1.52 mm 139 W/m2
12:17 4.1 °C 2.9 °C 991.4 hPa WNW 22.5 km/h 35.4 km/h 92 % 1.52 mm 163 W/m2
12:22 4 °C 2.8 °C 991.4 hPa WNW 22.5 km/h 35.4 km/h 92 % 1.52 mm 236 W/m2
12:27 4 °C 2.8 °C 991.4 hPa WNW 20.9 km/h 32.2 km/h 92 % 1.27 mm 323 W/m2
12:32 4.1 °C 2.9 °C 991.8 hPa WNW 19.3 km/h 37 km/h 92 % 1.02 mm 127 W/m2
12:37 4.1 °C 2.9 °C 991.8 hPa WNW 16.1 km/h 29 km/h 92 % 0.76 mm 153 W/m2
12:42 4.1 °C 2.9 °C 991.8 hPa WNW 12.9 km/h 19.3 km/h 92 % 0.76 mm 452 W/m2
12:47 4.4 °C 3.2 °C 991.8 hPa WNW 16.1 km/h 22.5 km/h 92 % 0.51 mm 640 W/m2
12:52 4.9 °C 3.7 °C 992.1 hPa WNW 14.5 km/h 20.9 km/h 92 % 0.51 mm 360 W/m2
12:57 5.3 °C 3.9 °C 992.1 hPa WNW 24.1 km/h 40.2 km/h 91 % 0.51 mm 279 W/m2
13:02 5.3 °C 3.8 °C 992.1 hPa WNW 17.7 km/h 32.2 km/h 90 % 0.25 mm 262 W/m2
13:07 5.5 °C 3.8 °C 992.1 hPa WNW 16.1 km/h 29 km/h 89 % 0.25 mm 744 W/m2
13:12 5.9 °C 4.4 °C 992.4 hPa WNW 16.1 km/h 29 km/h 90 % 0.51 mm 800 W/m2
13:17 6.3 °C 4.6 °C 992.4 hPa WNW 20.9 km/h 32.2 km/h 89 % 0.25 mm 684 W/m2
13:22 6.5 °C 4.5 °C 992.4 hPa WNW 17.7 km/h 30.6 km/h 87 % 0.25 mm 580 W/m2
13:27 6.7 °C 4.5 °C 992.4 hPa WNW 19.3 km/h 35.4 km/h 86 % 0.25 mm 568 W/m2
13:32 6.8 °C 4.4 °C 992.4 hPa WNW 17.7 km/h 30.6 km/h 85 % 0.25 mm 550 W/m2
13:37 6.9 °C 4.4 °C 992.4 hPa WNW 16.1 km/h 25.7 km/h 84 % 0.25 mm 541 W/m2
13:42 6.9 °C 4.1 °C 992.8 hPa WNW 20.9 km/h 40.2 km/h 82 % 0.25 mm 536 W/m2
13:47 6.9 °C 3.9 °C 992.8 hPa WNW 22.5 km/h 35.4 km/h 81 % 0.25 mm 529 W/m2
13:52 7 °C 3.8 °C 992.8 hPa WNW 27.4 km/h 43.5 km/h 80 % 0.25 mm 524 W/m2
13:57 6.9 °C 3.5 °C 992.8 hPa WNW 27.4 km/h 40.2 km/h 79 % 0.25 mm 517 W/m2
14:02 6.9 °C 3.3 °C 993.1 hPa WNW 27.4 km/h 40.2 km/h 78 % 0.25 mm 506 W/m2
14:07 7.1 °C 3.7 °C 993.1 hPa WNW 19.3 km/h 32.2 km/h 79 % 0.25 mm 497 W/m2
14:12 7.1 °C 3.7 °C 993.1 hPa WNW 22.5 km/h 33.8 km/h 79 % 0 mm 489 W/m2
14:17 7.2 °C 3.8 °C 993.1 hPa WNW 20.9 km/h 33.8 km/h 79 % 0 mm 483 W/m2
14:22 7.2 °C 3.6 °C 993.1 hPa West 22.5 km/h 32.2 km/h 78 % 0 mm 473 W/m2
14:27 7.3 °C 3.6 °C 993.1 hPa West 24.1 km/h 37 km/h 77 % 0 mm 473 W/m2
14:33 7.3 °C 3.3 °C 993.5 hPa West 24.1 km/h 33.8 km/h 76 % 0 mm 475 W/m2
14:38 7.4 °C 3.4 °C 993.5 hPa West 22.5 km/h 41.8 km/h 76 % 0 mm 448 W/m2
14:43 7.5 °C 3.2 °C 993.8 hPa WNW 24.1 km/h 38.6 km/h 74 % 0 mm 436 W/m2
14:48 7.6 °C 3.1 °C 993.8 hPa West 19.3 km/h 37 km/h 73 % 0 mm 425 W/m2
14:53 7.6 °C 2.9 °C 993.8 hPa WNW 25.7 km/h 40.2 km/h 72 % 0 mm 432 W/m2
14:58 7.6 °C 2.9 °C 993.8 hPa West 19.3 km/h 30.6 km/h 72 % 0 mm 411 W/m2
15:03 7.7 °C 2.8 °C 993.8 hPa WNW 22.5 km/h 35.4 km/h 71 % 0 mm 397 W/m2
15:08 7.7 °C 2.4 °C 993.8 hPa West 19.3 km/h 30.6 km/h 69 % 0 mm 385 W/m2
15:13 7.8 °C 2.1 °C 994.1 hPa West 22.5 km/h 37 km/h 67 % 0 mm 376 W/m2
15:18 7.7 °C 1.9 °C 994.1 hPa West 20.9 km/h 37 km/h 67 % 0 mm 350 W/m2
15:23 7.7 °C 2.2 °C 994.1 hPa West 16.1 km/h 25.7 km/h 68 % 0 mm 348 W/m2
15:28 7.6 °C 1.8 °C 994.1 hPa West 20.9 km/h 32.2 km/h 67 % 0 mm 144 W/m2
15:33 7.4 °C 1.9 °C 994.5 hPa West 19.3 km/h 32.2 km/h 68 % 0 mm 323 W/m2
15:38 7.3 °C 1.6 °C 994.5 hPa West 20.9 km/h 30.6 km/h 67 % 0 mm 54 W/m2
15:43 7.1 °C 1.8 °C 994.5 hPa West 17.7 km/h 24.1 km/h 69 % 0 mm 72 W/m2
15:48 6.8 °C 1.7 °C 994.5 hPa West 20.9 km/h 30.6 km/h 70 % 0 mm 104 W/m2
15:53 6.7 °C 1.8 °C 994.5 hPa WNW 17.7 km/h 30.6 km/h 71 % 0 mm 109 W/m2
15:58 6.7 °C 2 °C 994.8 hPa WNW 16.1 km/h 22.5 km/h 72 % 0 mm 134 W/m2
16:03 6.6 °C 1.9 °C 994.8 hPa WNW 17.7 km/h 25.7 km/h 72 % 0 mm 56 W/m2
16:08 6.6 °C 2.1 °C 994.8 hPa West 11.3 km/h 19.3 km/h 73 % 0 mm 200 W/m2
16:13 6.5 °C 2.2 °C 994.8 hPa WNW 9.7 km/h 16.1 km/h 74 % 0 mm 72 W/m2
16:18 6.6 °C 2.3 °C 994.5 hPa WNW 9.7 km/h 17.7 km/h 74 % 0 mm 216 W/m2
16:23 6.6 °C 2.3 °C 994.8 hPa WNW 16.1 km/h 24.1 km/h 74 % 0 mm 37 W/m2
16:28 6.6 °C 2.1 °C 994.8 hPa WNW 14.5 km/h 19.3 km/h 73 % 0 mm 65 W/m2
16:33 6.5 °C 2 °C 994.8 hPa West 11.3 km/h 17.7 km/h 73 % 0 mm 67 W/m2
16:38 6.5 °C 2.2 °C 994.8 hPa West 9.7 km/h 16.1 km/h 74 % 0 mm 69 W/m2
16:43 6.5 °C 2.2 °C 994.8 hPa West 4.8 km/h 9.7 km/h 74 % 0 mm 53 W/m2
16:48 6.5 °C 2.2 °C 994.8 hPa West 8 km/h 14.5 km/h 74 % 0 mm 35 W/m2
16:53 6.4 °C 2.1 °C 995.1 hPa Calm   3.2 km/h 74 % 0 mm 54 W/m2
16:58 6.4 °C 2.1 °C 995.1 hPa Calm     74 % 0 mm 47 W/m2
17:03 6.4 °C 2.1 °C 995.1 hPa Calm     74 % 0 mm 46 W/m2
17:08 6.4 °C 2.3 °C 995.1 hPa Calm     75 % 0 mm 53 W/m2
17:13 6.3 °C 2.4 °C 995.5 hPa WNW 1.6 km/h 3.2 km/h 76 % 0 mm 42 W/m2
17:18 6.3 °C 2.4 °C 995.5 hPa Calm   3.2 km/h 76 % 0 mm 47 W/m2
17:23 6.3 °C 2.4 °C 995.5 hPa Calm   3.2 km/h 76 % 0 mm 49 W/m2
17:28 6.3 °C 2.4 °C 995.5 hPa Calm   3.2 km/h 76 % 0 mm 26 W/m2
17:33 6.2 °C 2.3 °C 995.5 hPa SW 3.2 km/h 6.4 km/h 76 % 0 mm 14 W/m2
17:38 6.2 °C 2.3 °C 995.5 hPa Calm   1.6 km/h 76 % 0 mm 11 W/m2
17:43 6.2 °C 2.3 °C 995.5 hPa SW 1.6 km/h 4.8 km/h 76 % 0 mm 5 W/m2
17:48 6.1 °C 2.4 °C 995.8 hPa SW 1.6 km/h 3.2 km/h 77 % 0 mm 0 W/m2
17:53 6.1 °C 2.6 °C 995.8 hPa SW 1.6 km/h 4.8 km/h 78 % 0 mm 0 W/m2
17:58 6.2 °C 2.4 °C 995.8 hPa SW 4.8 km/h 8 km/h 77 % 0 mm 0 W/m2
18:03 6.1 °C 2.4 °C 996.2 hPa SW 3.2 km/h 8 km/h 77 % 0 mm 0 W/m2
18:08 6.1 °C 2.6 °C 996.2 hPa WSW 8 km/h 17.7 km/h 78 % 0 mm 0 W/m2
18:13 6 °C 2.4 °C 996.2 hPa WSW 8 km/h 16.1 km/h 78 % 0 mm 0 W/m2
18:18 5.9 °C 2.6 °C 996.2 hPa West 9.7 km/h 14.5 km/h 79 % 0 mm 0 W/m2
18:23 5.9 °C 2.7 °C 996.5 hPa WSW 8 km/h 11.3 km/h 80 % 0 mm 0 W/m2
18:28 5.8 °C 2.8 °C 996.5 hPa WSW 9.7 km/h 17.7 km/h 81 % 0 mm 0 W/m2
18:33 5.8 °C 3.1 °C 996.5 hPa WSW 4.8 km/h 9.7 km/h 83 % 0 mm 0 W/m2
18:38 5.6 °C 3.1 °C 996.5 hPa WSW 6.4 km/h 11.3 km/h 84 % 0 mm 0 W/m2
18:43 5.4 °C 2.9 °C 996.5 hPa WSW 3.2 km/h 8 km/h 84 % 0 mm 0 W/m2
18:48 5.3 °C 2.8 °C 996.5 hPa Calm     84 % 0 mm 0 W/m2
18:53 5.3 °C 3 °C 996.8 hPa Calm   3.2 km/h 85 % 0 mm 0 W/m2
18:58 5.2 °C 2.9 °C 996.8 hPa WSW 1.6 km/h 3.2 km/h 85 % 0 mm 0 W/m2
19:03 5.1 °C 2.9 °C 996.8 hPa WSW 4.8 km/h 8 km/h 86 % 0 mm 0 W/m2
19:08 4.9 °C 2.8 °C 997.2 hPa West 6.4 km/h 9.7 km/h 86 % 0 mm 0 W/m2
19:13 4.8 °C 2.7 °C 997.2 hPa West 8 km/h 16.1 km/h 86 % 0 mm 0 W/m2
19:18 4.8 °C 2.8 °C 997.2 hPa West 3.2 km/h 8 km/h 87 % 0 mm 0 W/m2
19:24 4.7 °C 2.7 °C 997.2 hPa West 3.2 km/h 6.4 km/h 87 % 0 mm 0 W/m2
19:29 4.6 °C 2.6 °C 997.2 hPa West 4.8 km/h 8 km/h 87 % 0 mm 0 W/m2
19:34 4.4 °C 2.4 °C 997.5 hPa West 4.8 km/h 8 km/h 87 % 0 mm 0 W/m2
19:39 4.4 °C 2.6 °C 997.5 hPa West 4.8 km/h 9.7 km/h 88 % 0 mm 0 W/m2
19:44 4.3 °C 2.5 °C 997.5 hPa West 6.4 km/h 9.7 km/h 88 % 0 mm 0 W/m2
19:49 4.3 °C 2.5 °C 997.5 hPa WNW 6.4 km/h 9.7 km/h 88 % 0 mm 0 W/m2
19:54 4.2 °C 2.4 °C 997.5 hPa WNW 8 km/h 9.7 km/h 88 % 0 mm 0 W/m2
19:59 4.2 °C 2.4 °C 997.9 hPa West 6.4 km/h 8 km/h 88 % 0 mm 0 W/m2
20:04 4.1 °C 2.3 °C 997.9 hPa West 8 km/h 12.9 km/h 88 % 0 mm 0 W/m2
20:09 4.1 °C 2.4 °C 997.9 hPa West 9.7 km/h 14.5 km/h 89 % 0 mm 0 W/m2
20:14 4 °C 2.2 °C 997.9 hPa West 8 km/h 12.9 km/h 88 % 0 mm 0 W/m2
20:19 4.1 °C 2.3 °C 997.9 hPa West 9.7 km/h 16.1 km/h 88 % 0 mm 0 W/m2
20:24 4.1 °C 2.3 °C 997.9 hPa West 4.8 km/h 12.9 km/h 88 % 0 mm 0 W/m2
20:29 4.1 °C 2.3 °C 998.2 hPa West 6.4 km/h 11.3 km/h 88 % 0 mm 0 W/m2
20:34 4 °C 2.1 °C 998.2 hPa WNW 4.8 km/h 11.3 km/h 87 % 0 mm 0 W/m2
20:39 4.1 °C 2.1 °C 998.2 hPa West 6.4 km/h 12.9 km/h 87 % 0 mm 0 W/m2
20:44 4.1 °C 2.1 °C 998.2 hPa West 6.4 km/h 11.3 km/h 87 % 0 mm 0 W/m2
20:49 4.2 °C 2.2 °C 998.2 hPa West 6.4 km/h 12.9 km/h 87 % 0 mm 0 W/m2
20:54 4.2 °C 2.2 °C 998.2 hPa West 9.7 km/h 22.5 km/h 87 % 0 mm 0 W/m2
20:59 4.3 °C 2.3 °C 998.2 hPa WNW 11.3 km/h 20.9 km/h 87 % 0 mm 0 W/m2
21:04 4.3 °C 2.2 °C 998.2 hPa WNW 14.5 km/h 29 km/h 86 % 0 mm 0 W/m2
21:09 4.4 °C 2.1 °C 998.5 hPa West 12.9 km/h 22.5 km/h 85 % 0 mm 0 W/m2
21:14 4.4 °C 1.9 °C 998.5 hPa West 9.7 km/h 16.1 km/h 84 % 0 mm 0 W/m2
21:19 4.4 °C 1.8 °C 998.5 hPa West 8 km/h 12.9 km/h 83 % 0 mm 0 W/m2
21:20 4.4 °C 1.8 °C 998.5 hPa West 9.7 km/h 14.5 km/h 83 % 0 mm 0 W/m2
21:25 4.3 °C 1.7 °C 998.5 hPa West 6.4 km/h 11.3 km/h 83 % 0 mm 0 W/m2
21:30 4.3 °C 1.7 °C 998.5 hPa West 9.7 km/h 16.1 km/h 83 % 0 mm 0 W/m2
21:35 4.3 °C 1.7 °C 998.5 hPa West 11.3 km/h 20.9 km/h 83 % 0 mm 0 W/m2
21:40 4.2 °C 1.6 °C 998.5 hPa WNW 4.8 km/h 12.9 km/h 83 % 0 mm 0 W/m2
21:45 4.2 °C 1.6 °C 998.9 hPa West 8 km/h 16.1 km/h 83 % 0 mm 0 W/m2
21:50 4.2 °C 1.6 °C 998.9 hPa WNW 3.2 km/h 9.7 km/h 83 % 0 mm 0 W/m2
21:55 4.2 °C 1.6 °C 998.9 hPa WNW 1.6 km/h 6.4 km/h 83 % 0 mm 0 W/m2
22:00 4.1 °C 1.4 °C 998.9 hPa WNW 3.2 km/h 8 km/h 83 % 0 mm 0 W/m2
22:05 4 °C 1.4 °C 998.9 hPa West 6.4 km/h 12.9 km/h 83 % 0 mm 0 W/m2
22:10 4 °C 1.4 °C 998.9 hPa West 6.4 km/h 12.9 km/h 83 % 0 mm 0 W/m2
22:15 3.9 °C 1.4 °C 999.2 hPa West 16.1 km/h 25.7 km/h 84 % 0 mm 0 W/m2
22:21 3.9 °C 1.4 °C 999.2 hPa West 11.3 km/h 17.7 km/h 84 % 0 mm 0 W/m2
22:26 3.9 °C 1.4 °C 999.2 hPa WNW 9.7 km/h 16.1 km/h 84 % 0 mm 0 W/m2
22:31 3.8 °C 1.3 °C 999.2 hPa WNW 9.7 km/h 12.9 km/h 84 % 0 mm 0 W/m2
22:36 3.7 °C 1.2 °C 999.2 hPa WNW 8 km/h 11.3 km/h 84 % 0 mm 0 W/m2
22:41 3.7 °C 1.4 °C 999.5 hPa West 9.7 km/h 14.5 km/h 85 % 0 mm 0 W/m2
22:46 3.6 °C 1.3 °C 999.5 hPa WNW 9.7 km/h 12.9 km/h 85 % 0 mm 0 W/m2
22:51 3.6 °C 1.5 °C 999.5 hPa West 9.7 km/h 12.9 km/h 86 % 0 mm 0 W/m2
22:56 3.7 °C 1.6 °C 999.5 hPa West 8 km/h 11.3 km/h 86 % 0 mm 0 W/m2
23:01 3.7 °C 1.6 °C 999.5 hPa West 4.8 km/h 8 km/h 86 % 0 mm 0 W/m2
23:06 3.7 °C 1.6 °C 999.5 hPa West 3.2 km/h 9.7 km/h 86 % 0 mm 0 W/m2
23:11 3.7 °C 1.6 °C 999.5 hPa WSW 3.2 km/h 6.4 km/h 86 % 0 mm 0 W/m2
23:16 3.7 °C 1.6 °C 999.5 hPa Calm   1.6 km/h 86 % 0 mm 0 W/m2
23:21 3.7 °C 1.6 °C 999.5 hPa Calm     86 % 0 mm 0 W/m2
23:26 3.7 °C 1.6 °C 999.9 hPa WSW 1.6 km/h 8 km/h 86 % 0 mm 0 W/m2
23:31 3.7 °C 1.6 °C 999.9 hPa WSW 1.6 km/h 3.2 km/h 86 % 0 mm 0 W/m2
23:36 3.7 °C 1.6 °C 999.9 hPa West 3.2 km/h 8 km/h 86 % 0 mm 0 W/m2
23:41 3.8 °C 1.8 °C 999.9 hPa WNW 6.4 km/h 11.3 km/h 87 % 0 mm 0 W/m2
23:46 3.8 °C 1.8 °C 999.9 hPa WNW 6.4 km/h 9.7 km/h 87 % 0 mm 0 W/m2
23:51 3.8 °C 1.8 °C 999.9 hPa West 3.2 km/h 8 km/h 87 % 0 mm 0 W/m2
23:56 3.8 °C 1.8 °C 999.9 hPa West 3.2 km/h 6.4 km/h 87 % 0 mm 0 W/m2
Delerius-Weather
Compliments of Weather Underground - 2.25 mb

Data updates at regular intervals.